Time;durP1;ratioP1;P1;durP2;ratioP2;P2;SDS_P1;SDS_P2;PMS_P1;PMS_P2;Temp;Humidity;BMP_temperature;BMP_pressure;BME280_temperature;BME280_humidity;BME280_pressure;Samples;Min_cycle;Max_cycle;Signal;HPM_P1;HPM_P2
2022/07/02 00:02:24;;;;;;;4.35;1.90;;;;;;;;;;4994790;28;20035;-80
2022/07/02 00:04:59;;;;;;;2.45;1.50;;;;;;;;;;4995375;28;20381;-81
2022/07/02 00:07:26;;;;;;;3.50;1.75;;;;;;;;;;4994319;28;20029;-79
2022/07/02 00:09:53;;;;;;;4.72;1.80;;;;;;;;;;4995040;28;20473;-79
2022/07/02 00:12:19;;;;;;;1.90;1.50;;;;;;;;;;4994210;28;20030;-80
2022/07/02 00:14:44;;;;;;;3.10;1.90;;;;;;;;;;4995895;28;20026;-80
2022/07/02 00:17:09;;;;;;;6.03;1.90;;;;;;;;;;4977844;28;20038;-81
2022/07/02 00:19:36;;;;;;;3.58;2.10;;;;;;;;;;4995985;28;20049;-80
2022/07/02 00:22:01;;;;;;;7.70;2.45;;;;;;;;;;4977491;28;20509;-80
2022/07/02 00:24:27;;;;;;;3.65;2.10;;;;;;;;;;4995494;28;20030;-80
2022/07/02 00:27:04;;;;;;;3.55;2.08;;;;;;;;;;4996181;28;20108;-80
2022/07/02 00:29:47;;;;;;;5.15;2.38;;;;;;;;;;4979793;28;20026;-80
2022/07/02 00:32:13;;;;;;;2.75;2.30;;;;;;;;;;4995147;28;20026;-80
2022/07/02 00:34:39;;;;;;;4.00;2.35;;;;;;;;;;4995027;28;20527;-80
2022/07/02 00:37:08;;;;;;;4.13;2.13;;;;;;;;;;4994967;28;20496;-80
2022/07/02 00:39:34;;;;;;;3.88;2.30;;;;;;;;;;4994047;28;20030;-80
2022/07/02 00:41:59;;;;;;;2.70;2.13;;;;;;;;;;4994817;28;20080;-81
2022/07/02 00:44:25;;;;;;;2.97;2.47;;;;;;;;;;4978877;28;20073;-81
2022/07/02 00:46:52;;;;;;;3.90;2.30;;;;;;;;;;4993348;28;20136;-81
2022/07/02 00:49:18;;;;;;;3.60;2.30;;;;;;;;;;4993839;28;20026;-81
2022/07/02 00:51:43;;;;;;;6.57;2.33;;;;;;;;;;4994787;28;20035;-79
2022/07/02 00:54:08;;;;;;;7.20;2.30;;;;;;;;;;4995407;28;20521;-79
2022/07/02 00:56:34;;;;;;;2.45;2.10;;;;;;;;;;4993284;28;20041;-79
2022/07/02 00:59:01;;;;;;;4.88;2.50;;;;;;;;;;4993487;28;20107;-81
2022/07/02 01:01:27;;;;;;;3.20;2.15;;;;;;;;;;4998138;28;20014;-81
2022/07/02 01:03:55;;;;;;;7.90;2.67;;;;;;;;;;4979068;28;20500;-80
2022/07/02 01:06:22;;;;;;;4.95;2.30;;;;;;;;;;4996680;28;20034;-80
2022/07/02 01:11:33;;;;;;;4.30;2.28;;;;;;;;;;4979830;28;20050;-80
2022/07/02 01:13:58;;;;;;;6.00;2.20;;;;;;;;;;4976890;28;20091;-80
2022/07/02 01:16:24;;;;;;;3.55;2.35;;;;;;;;;;4993348;28;20473;-80
2022/07/02 01:18:50;;;;;;;3.22;2.33;;;;;;;;;;4994255;28;20035;-80
2022/07/02 01:21:15;;;;;;;2.83;2.00;;;;;;;;;;4976702;28;20023;-81
2022/07/02 01:23:41;;;;;;;4.57;2.20;;;;;;;;;;4992824;28;20026;-80
2022/07/02 01:26:06;;;;;;;2.80;2.10;;;;;;;;;;4992799;28;20039;-80
2022/07/02 01:28:32;;;;;;;4.63;2.03;;;;;;;;;;4992811;28;20034;-80
2022/07/02 01:30:57;;;;;;;3.35;2.28;;;;;;;;;;4992815;28;20483;-80
2022/07/02 01:33:23;;;;;;;6.68;2.00;;;;;;;;;;4998051;28;20026;-80
2022/07/02 01:35:48;;;;;;;4.38;2.38;;;;;;;;;;4978570;28;20037;-80
2022/07/02 01:38:13;;;;;;;3.58;2.25;;;;;;;;;;4993892;28;20033;-80
2022/07/02 01:40:39;;;;;;;2.17;1.98;;;;;;;;;;4976522;28;20165;-80
2022/07/02 01:43:04;;;;;;;6.18;2.25;;;;;;;;;;4992706;28;20030;-81
2022/07/02 01:45:29;;;;;;;3.83;2.20;;;;;;;;;;4993247;28;20496;-81
2022/07/02 01:47:55;;;;;;;2.30;2.10;;;;;;;;;;4992338;28;20100;-81
2022/07/02 01:50:21;;;;;;;4.63;2.67;;;;;;;;;;4992539;28;20056;-81
2022/07/02 01:52:46;;;;;;;6.38;2.33;;;;;;;;;;4992857;28;20474;-81
2022/07/02 01:55:12;;;;;;;2.05;1.85;;;;;;;;;;4992975;28;20030;-80
2022/07/02 01:57:37;;;;;;;3.53;2.15;;;;;;;;;;4993826;28;20391;-81
2022/07/02 02:00:08;;;;;;;2.58;2.15;;;;;;;;;;4992767;28;20030;-80
2022/07/02 02:02:34;;;;;;;4.18;2.25;;;;;;;;;;4993419;28;20024;-80
2022/07/02 02:04:59;;;;;;;3.63;2.00;;;;;;;;;;4993706;28;20038;-80
2022/07/02 02:07:25;;;;;;;3.28;2.00;;;;;;;;;;4992490;28;20038;-80
2022/07/02 02:09:51;;;;;;;4.38;1.77;;;;;;;;;;4993476;28;20532;-80
2022/07/02 02:12:16;;;;;;;2.97;2.00;;;;;;;;;;4993600;28;20157;-80
2022/07/02 02:14:42;;;;;;;2.92;2.20;;;;;;;;;;4992325;28;20030;-81
2022/07/02 02:17:07;;;;;;;2.47;2.00;;;;;;;;;;4993450;28;20099;-81
2022/07/02 02:19:32;;;;;;;4.10;2.13;;;;;;;;;;4993509;28;20030;-81
2022/07/02 02:21:58;;;;;;;3.55;2.20;;;;;;;;;;4993511;28;20030;-80
2022/07/02 02:24:23;;;;;;;2.65;2.05;;;;;;;;;;4976048;28;20547;-81
2022/07/02 02:26:49;;;;;;;2.50;2.30;;;;;;;;;;4993485;28;20547;-81
2022/07/02 02:29:14;;;;;;;3.67;2.47;;;;;;;;;;4992689;28;20381;-81
2022/07/02 02:31:40;;;;;;;3.92;2.53;;;;;;;;;;4992545;28;20091;-81
2022/07/02 02:34:05;;;;;;;2.20;2.00;;;;;;;;;;4993611;28;20088;-81
2022/07/02 02:36:31;;;;;;;5.10;2.55;;;;;;;;;;4992380;28;20026;-81
2022/07/02 02:38:56;;;;;;;5.07;2.33;;;;;;;;;;4991986;28;20031;-81
2022/07/02 02:41:21;;;;;;;3.50;2.30;;;;;;;;;;4993471;28;20034;-81
2022/07/02 02:43:47;;;;;;;4.22;2.10;;;;;;;;;;4959755;28;20053;-81
2022/07/02 02:46:12;;;;;;;3.75;2.33;;;;;;;;;;4995086;28;20061;-81
2022/07/02 02:48:37;;;;;;;2.25;2.05;;;;;;;;;;4996156;28;20117;-81
2022/07/02 02:51:04;;;;;;;3.60;2.20;;;;;;;;;;4996990;28;20031;-81
2022/07/02 02:53:30;;;;;;;3.00;2.00;;;;;;;;;;4980307;28;20057;-81
2022/07/02 02:55:55;;;;;;;3.38;2.13;;;;;;;;;;4996742;28;20054;-80
2022/07/02 02:58:20;;;;;;;4.10;1.88;;;;;;;;;;4995499;28;20174;-81
2022/07/02 03:00:46;;;;;;;3.00;2.20;;;;;;;;;;4996094;28;20050;-81
2022/07/02 03:03:12;;;;;;;4.10;2.05;;;;;;;;;;4996649;28;20038;-80
2022/07/02 03:05:37;;;;;;;2.78;1.88;;;;;;;;;;4979493;28;20034;-80
2022/07/02 03:08:03;;;;;;;2.10;1.90;;;;;;;;;;4995153;28;20026;-80
2022/07/02 03:10:28;;;;;;;3.80;2.10;;;;;;;;;;4995695;28;20116;-80
2022/07/02 03:12:54;;;;;;;3.72;2.15;;;;;;;;;;4996469;28;20042;-80
2022/07/02 03:15:19;;;;;;;2.42;1.98;;;;;;;;;;4995436;28;20037;-80
2022/07/02 03:17:44;;;;;;;2.92;2.05;;;;;;;;;;4996582;28;20038;-80
2022/07/02 03:20:10;;;;;;;3.20;2.20;;;;;;;;;;4994980;28;20041;-80
2022/07/02 03:22:36;;;;;;;3.42;1.80;;;;;;;;;;4978880;28;20038;-81
2022/07/02 03:25:01;;;;;;;2.20;1.95;;;;;;;;;;4995168;28;20062;-82
2022/07/02 03:27:27;;;;;;;3.17;2.00;;;;;;;;;;4996345;28;20503;-81
2022/07/02 03:29:52;;;;;;;4.10;2.05;;;;;;;;;;4994860;28;20117;-81
2022/07/02 03:32:18;;;;;;;2.00;1.75;;;;;;;;;;4995309;28;20068;-81
2022/07/02 03:34:44;;;;;;;2.70;1.85;;;;;;;;;;4994785;28;20049;-81
2022/07/02 03:37:09;;;;;;;2.97;1.70;;;;;;;;;;4996358;28;20031;-81
2022/07/02 03:39:34;;;;;;;5.95;2.00;;;;;;;;;;4994861;28;20081;-81
2022/07/02 03:42:00;;;;;;;2.13;1.70;;;;;;;;;;4978637;28;20042;-80
2022/07/02 03:44:25;;;;;;;2.80;1.58;;;;;;;;;;4994633;28;20034;-80
2022/07/02 03:46:50;;;;;;;3.25;2.00;;;;;;;;;;4994485;28;20058;-81
2022/07/02 03:49:16;;;;;;;1.77;1.67;;;;;;;;;;4994724;28;20397;-81
2022/07/02 03:51:41;;;;;;;2.35;1.40;;;;;;;;;;4995929;28;20038;-80
2022/07/02 03:54:07;;;;;;;2.85;2.08;;;;;;;;;;4995735;28;20073;-80
2022/07/02 03:56:32;;;;;;;4.60;2.00;;;;;;;;;;4994504;28;20054;-80
2022/07/02 03:58:57;;;;;;;2.08;1.70;;;;;;;;;;4995654;28;20496;-80
2022/07/02 04:01:23;;;;;;;4.25;1.77;;;;;;;;;;4978050;28;20049;-80
2022/07/02 04:03:48;;;;;;;2.13;1.85;;;;;;;;;;4994420;28;20397;-80
2022/07/02 04:06:14;;;;;;;3.03;1.85;;;;;;;;;;4995637;28;20030;-80
2022/07/02 04:08:39;;;;;;;1.77;1.33;;;;;;;;;;4995406;28;20030;-80
2022/07/02 04:11:04;;;;;;;2.50;1.60;;;;;;;;;;4995614;28;20037;-80
2022/07/02 04:13:30;;;;;;;2.35;1.48;;;;;;;;;;4994110;28;20030;-80
2022/07/02 04:15:55;;;;;;;2.40;1.73;;;;;;;;;;4995870;28;20062;-80
2022/07/02 04:18:20;;;;;;;1.50;1.40;;;;;;;;;;4978012;28;20050;-80
2022/07/02 04:20:46;;;;;;;2.67;1.60;;;;;;;;;;4978066;28;20531;-80
2022/07/02 04:23:12;;;;;;;1.55;1.45;;;;;;;;;;4993801;28;20030;-80
2022/07/02 04:25:37;;;;;;;2.65;1.80;;;;;;;;;;4995204;28;20054;-79
2022/07/02 04:28:03;;;;;;;2.25;1.50;;;;;;;;;;4995508;28;20425;-80
2022/07/02 04:30:28;;;;;;;1.63;1.45;;;;;;;;;;4993535;28;20101;-79
2022/07/02 04:32:54;;;;;;;3.28;1.60;;;;;;;;;;4993683;28;20508;-78
2022/07/02 04:35:20;;;;;;;1.92;1.20;;;;;;;;;;4977662;28;20117;-80
2022/07/02 04:37:46;;;;;;;3.45;1.90;;;;;;;;;;4994851;28;20444;-79
2022/07/02 04:40:14;;;;;;;2.05;1.30;;;;;;;;;;4977883;28;20117;-80
2022/07/02 04:42:39;;;;;;;4.47;1.60;;;;;;;;;;4961609;28;20061;-80
2022/07/02 04:45:05;;;;;;;2.58;1.45;;;;;;;;;;4993767;28;20462;-80
2022/07/02 04:47:30;;;;;;;2.75;1.60;;;;;;;;;;4993249;28;20064;-80
2022/07/02 04:49:56;;;;;;;5.75;1.77;;;;;;;;;;4995513;28;20109;-80
2022/07/02 04:52:21;;;;;;;2.90;1.55;;;;;;;;;;4994664;28;20030;-80
2022/07/02 04:54:47;;;;;;;2.40;1.30;;;;;;;;;;4993386;28;20037;-79
2022/07/02 04:57:12;;;;;;;1.70;1.40;;;;;;;;;;4993459;28;20030;-79
2022/07/02 04:59:38;;;;;;;1.30;1.20;;;;;;;;;;4961400;28;20034;-78
2022/07/02 05:02:03;;;;;;;2.13;1.23;;;;;;;;;;4995023;28;20117;-79
2022/07/02 05:04:29;;;;;;;1.50;1.20;;;;;;;;;;4993838;28;20035;-80
2022/07/02 05:06:54;;;;;;;1.83;1.05;;;;;;;;;;4996179;28;20500;-80
2022/07/02 05:09:20;;;;;;;3.28;1.65;;;;;;;;;;4993480;28;20022;-80
2022/07/02 05:11:45;;;;;;;1.40;1.20;;;;;;;;;;4962692;28;20539;-80
2022/07/02 05:14:11;;;;;;;1.77;1.15;;;;;;;;;;4995275;28;20385;-80
2022/07/02 05:16:39;;;;;;;2.13;1.35;;;;;;;;;;4994003;28;20026;-80
2022/07/02 05:19:07;;;;;;;3.95;1.67;;;;;;;;;;4994415;28;20041;-80
2022/07/02 05:21:32;;;;;;;2.70;1.20;;;;;;;;;;4997034;28;20474;-80
2022/07/02 05:23:58;;;;;;;2.42;1.20;;;;;;;;;;4994244;28;20130;-80
2022/07/02 05:26:26;;;;;;;3.92;1.40;;;;;;;;;;4995044;28;20054;-80
2022/07/02 05:28:51;;;;;;;1.98;1.30;;;;;;;;;;4978887;28;20026;-80
2022/07/02 05:31:19;;;;;;;1.80;1.30;;;;;;;;;;4994636;28;20343;-81
2022/07/02 05:33:47;;;;;;;1.25;1.10;;;;;;;;;;4964143;28;20473;-79
2022/07/02 05:36:13;;;;;;;1.23;1.00;;;;;;;;;;4978413;28;20117;-80
2022/07/02 05:38:38;;;;;;;1.10;1.00;;;;;;;;;;4993150;28;20545;-80
2022/07/02 05:41:03;;;;;;;3.70;1.20;;;;;;;;;;4993518;28;20030;-80
2022/07/02 05:43:29;;;;;;;1.88;1.10;;;;;;;;;;4962214;28;20368;-80
2022/07/02 05:45:54;;;;;;;1.63;1.20;;;;;;;;;;4992863;28;20129;-80
2022/07/02 05:48:20;;;;;;;2.10;1.40;;;;;;;;;;4994188;28;20041;-82
2022/07/02 05:50:45;;;;;;;4.15;1.30;;;;;;;;;;4979654;28;20026;-80
2022/07/02 05:53:11;;;;;;;2.22;1.20;;;;;;;;;;4992611;28;20117;-80
2022/07/02 05:55:36;;;;;;;3.72;1.25;;;;;;;;;;4977887;28;20129;-80
2022/07/02 05:58:01;;;;;;;3.75;1.20;;;;;;;;;;4993859;28;20041;-80
2022/07/02 06:00:27;;;;;;;3.75;1.20;;;;;;;;;;4993767;28;20034;-80
2022/07/02 06:02:52;;;;;;;7.22;1.30;;;;;;;;;;4994295;28;20034;-80
2022/07/02 06:08:01;;;;;;;2.65;1.20;;;;;;;;;;4979652;28;20084;-80
2022/07/02 06:10:27;;;;;;;3.55;1.50;;;;;;;;;;4992484;28;20030;-80
2022/07/02 06:12:53;;;;;;;3.63;1.20;;;;;;;;;;4992659;28;20031;-80
2022/07/02 06:15:19;;;;;;;10.52;1.58;;;;;;;;;;4992198;28;20038;-80
2022/07/02 06:17:45;;;;;;;4.00;1.30;;;;;;;;;;4975916;28;20030;-80
2022/07/02 06:20:12;;;;;;;2.03;1.30;;;;;;;;;;4993924;28;20503;-82
2022/07/02 06:22:37;;;;;;;5.18;1.30;;;;;;;;;;4982954;28;20049;-84
2022/07/02 06:25:04;;;;;;;5.10;1.50;;;;;;;;;;4980951;28;20026;-82
2022/07/02 06:27:34;;;;;;;2.88;1.25;;;;;;;;;;4982849;28;20206;-82
2022/07/02 06:30:00;;;;;;;7.13;1.52;;;;;;;;;;4997193;28;20026;-82
2022/07/02 06:32:26;;;;;;;3.80;1.52;;;;;;;;;;4997946;28;20030;-82
2022/07/02 06:34:51;;;;;;;4.10;1.10;;;;;;;;;;4996948;28;20081;-81
2022/07/02 06:37:17;;;;;;;4.00;1.33;;;;;;;;;;4979512;28;20038;-79
2022/07/02 06:39:42;;;;;;;3.42;1.30;;;;;;;;;;4979565;28;20030;-79
2022/07/02 06:42:19;;;;;;;2.28;1.10;;;;;;;;;;4996126;28;20038;-80
2022/07/02 06:44:46;;;;;;;3.65;1.30;;;;;;;;;;4998322;28;20038;-80
2022/07/02 06:47:12;;;;;;;4.45;1.67;;;;;;;;;;4996627;28;20142;-81
2022/07/02 06:49:38;;;;;;;1.88;1.02;;;;;;;;;;4997805;28;20030;-80
2022/07/02 06:52:03;;;;;;;4.78;1.65;;;;;;;;;;4996508;28;20056;-81
2022/07/02 06:54:29;;;;;;;3.10;1.20;;;;;;;;;;4995550;28;20038;-80
2022/07/02 06:56:54;;;;;;;2.88;1.00;;;;;;;;;;4997042;28;20172;-80
2022/07/02 06:59:20;;;;;;;1.77;1.35;;;;;;;;;;4996638;28;20390;-80
2022/07/02 07:01:45;;;;;;;3.95;1.50;;;;;;;;;;4996452;28;20045;-82
2022/07/02 07:04:10;;;;;;;3.17;1.35;;;;;;;;;;4996245;28;20033;-84
2022/07/02 07:06:36;;;;;;;4.05;1.30;;;;;;;;;;4995517;28;20042;-81
2022/07/02 07:09:02;;;;;;;3.28;1.20;;;;;;;;;;4995996;28;20547;-81
2022/07/02 07:11:28;;;;;;;7.28;1.40;;;;;;;;;;4995960;28;20030;-82
2022/07/02 07:13:53;;;;;;;3.13;1.25;;;;;;;;;;4995920;28;20030;-82
2022/07/02 07:16:19;;;;;;;3.38;1.30;;;;;;;;;;4996054;28;20347;-80
2022/07/02 07:18:50;;;;;;;5.35;1.63;;;;;;;;;;4995381;28;20378;-81
2022/07/02 07:21:16;;;;;;;5.90;1.73;;;;;;;;;;4994453;28;20118;-80
2022/07/02 07:23:41;;;;;;;7.93;2.20;;;;;;;;;;4997591;28;20431;-82
2022/07/02 07:26:07;;;;;;;9.63;2.70;;;;;;;;;;4979829;28;20038;-84
2022/07/02 07:28:32;;;;;;;7.53;3.05;;;;;;;;;;4995776;28;20229;-81
2022/07/02 07:30:57;;;;;;;11.82;3.67;;;;;;;;;;4994941;28;20034;-80
2022/07/02 07:33:23;;;;;;;7.03;2.70;;;;;;;;;;4996234;28;20034;-81
2022/07/02 07:35:48;;;;;;;10.32;3.00;;;;;;;;;;4995774;28;20473;-82
2022/07/02 07:38:14;;;;;;;7.00;2.58;;;;;;;;;;4996282;28;20038;-82
2022/07/02 07:40:39;;;;;;;6.90;2.70;;;;;;;;;;4995410;28;20374;-81
2022/07/02 07:43:04;;;;;;;10.77;2.13;;;;;;;;;;4998190;28;20040;-81
2022/07/02 07:45:30;;;;;;;6.43;1.80;;;;;;;;;;4997479;28;20054;-83
2022/07/02 07:47:56;;;;;;;6.72;1.50;;;;;;;;;;4979515;28;20047;-78
2022/07/02 07:50:21;;;;;;;2.92;1.30;;;;;;;;;;4997621;28;20022;-80
2022/07/02 07:52:47;;;;;;;2.83;1.27;;;;;;;;;;4995610;28;20035;-78
2022/07/02 07:55:12;;;;;;;1.27;1.00;;;;;;;;;;4996632;28;20371;-80
2022/07/02 07:57:37;;;;;;;1.30;0.85;;;;;;;;;;4995421;28;20037;-80
2022/07/02 08:00:04;;;;;;;2.08;1.02;;;;;;;;;;4997338;28;20429;-80
2022/07/02 08:02:30;;;;;;;3.88;1.20;;;;;;;;;;4996740;28;20079;-80
2022/07/02 08:04:55;;;;;;;2.17;0.80;;;;;;;;;;4996615;28;20110;-81
2022/07/02 08:07:21;;;;;;;3.65;1.10;;;;;;;;;;4998408;28;20082;-81
2022/07/02 08:09:52;;;;;;;1.60;1.05;;;;;;;;;;4997046;28;20034;-83
2022/07/02 08:12:19;;;;;;;4.70;1.00;;;;;;;;;;4979721;28;20026;-82
2022/07/02 08:14:44;;;;;;;4.15;1.55;;;;;;;;;;4995799;28;20034;-80
2022/07/02 08:17:09;;;;;;;4.30;0.90;;;;;;;;;;4994045;28;20084;-79
2022/07/02 08:19:35;;;;;;;2.25;1.30;;;;;;;;;;4978173;28;20026;-80
2022/07/02 08:22:00;;;;;;;4.50;1.23;;;;;;;;;;4977861;28;20150;-79
2022/07/02 08:24:25;;;;;;;1.23;0.90;;;;;;;;;;4995665;28;20110;-81
2022/07/02 08:26:51;;;;;;;1.05;0.70;;;;;;;;;;4995107;28;20038;-81
2022/07/02 08:29:16;;;;;;;11.82;1.58;;;;;;;;;;4994857;28;20030;-81
2022/07/02 08:31:42;;;;;;;3.40;0.98;;;;;;;;;;4997010;28;20037;-81
2022/07/02 08:34:07;;;;;;;7.50;1.33;;;;;;;;;;4979619;28;20026;-81
2022/07/02 08:36:32;;;;;;;3.00;1.00;;;;;;;;;;4997996;28;20053;-81
2022/07/02 08:38:58;;;;;;;10.90;1.65;;;;;;;;;;4995692;28;20166;-81
2022/07/02 08:41:23;;;;;;;9.60;1.30;;;;;;;;;;4998083;28;20389;-82
2022/07/02 08:43:51;;;;;;;3.50;0.80;;;;;;;;;;4963033;28;20038;-81
2022/07/02 08:46:17;;;;;;;5.88;1.38;;;;;;;;;;4999203;28;20089;-81
2022/07/02 08:48:44;;;;;;;4.30;0.90;;;;;;;;;;4993577;28;20035;-79
2022/07/02 08:51:10;;;;;;;4.65;1.00;;;;;;;;;;4994790;28;20030;-81
2022/07/02 08:53:36;;;;;;;4.45;0.95;;;;;;;;;;4995497;28;20030;-81
2022/07/02 08:56:02;;;;;;;4.93;0.95;;;;;;;;;;4995225;28;20038;-81
2022/07/02 08:58:27;;;;;;;8.10;1.35;;;;;;;;;;4997807;28;20058;-82
2022/07/02 09:00:53;;;;;;;7.90;1.33;;;;;;;;;;4962692;28;20034;-79
2022/07/02 09:03:19;;;;;;;4.45;0.95;;;;;;;;;;4995959;28;20038;-81
2022/07/02 09:05:45;;;;;;;2.08;0.85;;;;;;;;;;4960595;28;20034;-80
2022/07/02 09:08:10;;;;;;;5.47;1.15;;;;;;;;;;4993025;28;20026;-77
2022/07/02 09:10:37;;;;;;;9.18;1.13;;;;;;;;;;4994977;28;20462;-77
2022/07/02 09:13:03;;;;;;;3.08;0.70;;;;;;;;;;4994111;28;20026;-79
2022/07/02 09:15:29;;;;;;;4.55;1.00;;;;;;;;;;4994617;28;20057;-79
2022/07/02 09:17:54;;;;;;;9.95;1.15;;;;;;;;;;4976630;28;20038;-78
2022/07/02 09:20:20;;;;;;;17.17;1.55;;;;;;;;;;4993053;28;20037;-79
2022/07/02 09:22:50;;;;;;;6.47;1.05;;;;;;;;;;4993949;28;20045;-79
2022/07/02 09:25:21;;;;;;;6.25;0.90;;;;;;;;;;4977144;28;20032;-79
2022/07/02 09:27:48;;;;;;;6.85;0.82;;;;;;;;;;4994569;28;20457;-78
2022/07/02 09:30:18;;;;;;;2.55;0.70;;;;;;;;;;4960861;28;20037;-79
2022/07/02 09:32:46;;;;;;;3.72;1.08;;;;;;;;;;4976350;28;20056;-80
2022/07/02 09:35:20;;;;;;;8.40;1.10;;;;;;;;;;4977151;28;20026;-80
2022/07/02 09:37:47;;;;;;;5.15;1.23;;;;;;;;;;4993223;28;20027;-80
2022/07/02 09:40:12;;;;;;;0.95;0.70;;;;;;;;;;4992909;28;20030;-77
2022/07/02 09:42:38;;;;;;;2.45;1.17;;;;;;;;;;4994114;28;20041;-78
2022/07/02 09:45:05;;;;;;;2.10;0.90;;;;;;;;;;4992502;28;20049;-78
2022/07/02 09:47:34;;;;;;;3.42;0.88;;;;;;;;;;4992447;28;20507;-79
2022/07/02 09:50:08;;;;;;;3.42;0.80;;;;;;;;;;4993602;28;20026;-78
2022/07/02 09:52:35;;;;;;;1.40;0.77;;;;;;;;;;4976716;28;20080;-77
2022/07/02 09:55:02;;;;;;;3.20;0.75;;;;;;;;;;4994006;28;20050;-77
2022/07/02 09:57:28;;;;;;;3.33;0.95;;;;;;;;;;4994865;28;20033;-78
2022/07/02 10:00:06;;;;;;;2.97;0.70;;;;;;;;;;4994605;28;20050;-78
2022/07/02 10:02:31;;;;;;;2.63;0.75;;;;;;;;;;4993385;28;20026;-78
2022/07/02 10:04:57;;;;;;;1.58;0.80;;;;;;;;;;4995690;28;20054;-78
2022/07/02 10:07:23;;;;;;;17.98;3.03;;;;;;;;;;4994585;28;20034;-79
2022/07/02 10:09:50;;;;;;;12.82;3.38;;;;;;;;;;4994141;28;20026;-79
2022/07/02 10:12:16;;;;;;;15.50;2.47;;;;;;;;;;4976865;28;20038;-79
2022/07/02 10:14:43;;;;;;;9.20;2.42;;;;;;;;;;4992534;28;20569;-79
2022/07/02 10:17:10;;;;;;;11.27;2.63;;;;;;;;;;4994121;28;20078;-79
2022/07/02 10:19:35;;;;;;;6.65;1.45;;;;;;;;;;4994233;28;20026;-79
2022/07/02 10:22:02;;;;;;;19.67;2.58;;;;;;;;;;4994440;28;20176;-79
2022/07/02 10:24:28;;;;;;;8.23;1.45;;;;;;;;;;4978526;28;20114;-79
2022/07/02 10:26:59;;;;;;;4.80;1.48;;;;;;;;;;4995312;28;20057;-79
2022/07/02 10:29:26;;;;;;;7.32;1.45;;;;;;;;;;4995236;28;20018;-79
2022/07/02 10:32:24;;;;;;;4.10;1.50;;;;;;;;;;4993639;28;20030;-79
2022/07/02 10:35:17;;;;;;;2.67;1.02;;;;;;;;;;4993967;28;20085;-79
2022/07/02 10:37:43;;;;;;;2.05;1.00;;;;;;;;;;4981386;28;20030;-79
2022/07/02 10:40:09;;;;;;;4.00;1.27;;;;;;;;;;4977406;28;20065;-79
2022/07/02 10:42:50;;;;;;;1.85;1.10;;;;;;;;;;4977568;28;20030;-79
2022/07/02 10:45:20;;;;;;;2.08;0.90;;;;;;;;;;4991692;28;20504;-79
2022/07/02 10:48:01;;;;;;;4.60;1.02;;;;;;;;;;4991444;28;20050;-79
2022/07/02 10:50:39;;;;;;;2.50;1.05;;;;;;;;;;4992406;28;20500;-79
2022/07/02 10:53:24;;;;;;;3.03;0.93;;;;;;;;;;4994256;28;20053;-80
2022/07/02 10:55:53;;;;;;;3.47;1.10;;;;;;;;;;4991393;28;20030;-79
2022/07/02 10:58:20;;;;;;;1.80;0.80;;;;;;;;;;4993390;28;20030;-81
2022/07/02 11:00:46;;;;;;;2.25;0.93;;;;;;;;;;4975478;28;20379;-80
2022/07/02 11:03:24;;;;;;;2.60;1.10;;;;;;;;;;4993084;28;20117;-79
2022/07/02 11:05:56;;;;;;;2.75;1.13;;;;;;;;;;4995455;28;20034;-81
2022/07/02 11:08:49;;;;;;;3.20;1.10;;;;;;;;;;4996273;28;20359;-81
2022/07/02 11:11:16;;;;;;;1.88;0.90;;;;;;;;;;4996945;28;20788;-80
2022/07/02 11:14:01;;;;;;;7.68;2.10;;;;;;;;;;4995521;28;20041;-80
2022/07/02 11:16:38;;;;;;;39.22;9.40;;;;;;;;;;4995412;28;20022;-81
2022/07/02 11:19:04;;;;;;;26.95;6.60;;;;;;;;;;4994712;28;20102;-79
2022/07/02 11:21:30;;;;;;;20.77;4.18;;;;;;;;;;4995207;28;20030;-80
2022/07/02 11:23:56;;;;;;;16.92;2.90;;;;;;;;;;4995006;28;20164;-81
2022/07/02 11:26:26;;;;;;;16.60;3.25;;;;;;;;;;4979203;28;20493;-81
2022/07/02 11:28:52;;;;;;;12.82;3.10;;;;;;;;;;4995510;28;20027;-80
2022/07/02 11:31:19;;;;;;;10.18;2.42;;;;;;;;;;5000293;28;20446;-81
2022/07/02 11:33:50;;;;;;;9.98;2.63;;;;;;;;;;4994894;28;20037;-81
2022/07/02 11:36:16;;;;;;;11.88;3.28;;;;;;;;;;4997960;28;20026;-81
2022/07/02 11:38:45;;;;;;;8.25;2.88;;;;;;;;;;4995091;28;20033;-80
2022/07/02 11:41:24;;;;;;;9.98;2.20;;;;;;;;;;4995719;28;20111;-79
2022/07/02 11:43:57;;;;;;;12.57;2.70;;;;;;;;;;4979996;28;20034;-81
2022/07/02 11:46:24;;;;;;;4.97;2.13;;;;;;;;;;4994719;28;20081;-79
2022/07/02 11:48:51;;;;;;;6.35;1.83;;;;;;;;;;4996009;28;20049;-80
2022/07/02 11:51:19;;;;;;;9.30;2.42;;;;;;;;;;4995504;28;20026;-79
2022/07/02 11:53:58;;;;;;;8.73;2.35;;;;;;;;;;4995191;28;20022;-79
2022/07/02 11:56:23;;;;;;;5.07;1.73;;;;;;;;;;4994937;28;20037;-79
2022/07/02 11:58:49;;;;;;;4.93;1.58;;;;;;;;;;4995045;28;20026;-79
2022/07/02 12:01:31;;;;;;;6.07;1.80;;;;;;;;;;4994967;28;20030;-79
2022/07/02 12:04:02;;;;;;;4.93;1.50;;;;;;;;;;4979819;28;20027;-80
2022/07/02 12:06:31;;;;;;;4.85;1.50;;;;;;;;;;4996584;28;20049;-79
2022/07/02 12:08:58;;;;;;;3.03;1.52;;;;;;;;;;4981706;28;20022;-79
2022/07/02 12:11:24;;;;;;;3.65;1.23;;;;;;;;;;4994764;28;20084;-80
2022/07/02 12:13:51;;;;;;;5.13;1.65;;;;;;;;;;4980711;28;20049;-79
2022/07/02 12:16:19;;;;;;;2.92;1.48;;;;;;;;;;5000496;28;20022;-79
2022/07/02 12:19:04;;;;;;;3.75;1.20;;;;;;;;;;4997907;28;20100;-79
2022/07/02 12:21:39;;;;;;;3.50;1.30;;;;;;;;;;5001228;28;20172;-79
2022/07/02 12:24:07;;;;;;;5.22;1.30;;;;;;;;;;5003341;28;20026;-79
2022/07/02 12:26:33;;;;;;;3.25;1.40;;;;;;;;;;5004057;28;20049;-79
2022/07/02 12:31:55;;;;;;;2.95;1.20;;;;;;;;;;5006361;28;20105;-79
2022/07/02 12:34:22;;;;;;;2.75;1.38;;;;;;;;;;5011275;28;20417;-79
2022/07/02 12:36:57;;;;;;;2.15;1.13;;;;;;;;;;5007317;28;20041;-79
2022/07/02 12:39:40;;;;;;;3.85;1.27;;;;;;;;;;5004557;28;20026;-78
2022/07/02 12:42:20;;;;;;;2.38;1.17;;;;;;;;;;5004210;28;20049;-80
2022/07/02 12:44:55;;;;;;;3.25;1.20;;;;;;;;;;5003569;28;20030;-79
2022/07/02 12:47:22;;;;;;;3.08;1.40;;;;;;;;;;5004524;28;20057;-79
2022/07/02 12:50:00;;;;;;;3.47;1.08;;;;;;;;;;5002663;28;20046;-80
2022/07/02 12:52:28;;;;;;;3.88;1.00;;;;;;;;;;5003455;28;20034;-80
2022/07/02 12:54:54;;;;;;;3.13;1.27;;;;;;;;;;5008869;28;20034;-80
2022/07/02 12:57:21;;;;;;;1.67;0.88;;;;;;;;;;4970292;28;20137;-79
2022/07/02 12:59:48;;;;;;;2.83;1.08;;;;;;;;;;4980863;28;20023;-80
2022/07/02 13:02:24;;;;;;;2.40;1.20;;;;;;;;;;4997449;28;20045;-79
2022/07/02 13:04:49;;;;;;;2.25;0.88;;;;;;;;;;5001071;28;20046;-79
2022/07/02 13:07:15;;;;;;;1.40;0.90;;;;;;;;;;4999446;28;20041;-79
2022/07/02 13:09:42;;;;;;;1.88;0.90;;;;;;;;;;4996705;28;20121;-79
2022/07/02 13:12:07;;;;;;;1.45;0.93;;;;;;;;;;4978886;28;20175;-79
2022/07/02 13:14:33;;;;;;;1.23;1.00;;;;;;;;;;4993887;28;20034;-79
2022/07/02 13:16:58;;;;;;;3.00;0.95;;;;;;;;;;4996063;28;20026;-80
2022/07/02 13:19:23;;;;;;;2.70;0.90;;;;;;;;;;4995130;28;20117;-80
2022/07/02 13:21:49;;;;;;;2.90;1.02;;;;;;;;;;4995564;28;20031;-80
2022/07/02 13:24:14;;;;;;;2.35;1.27;;;;;;;;;;4979038;28;20030;-80
2022/07/02 13:26:39;;;;;;;1.50;0.90;;;;;;;;;;4996208;28;20465;-80
2022/07/02 13:29:05;;;;;;;1.98;0.88;;;;;;;;;;4995761;28;20019;-80
2022/07/02 13:31:32;;;;;;;0.88;0.80;;;;;;;;;;4981268;28;20041;-78
2022/07/02 13:33:59;;;;;;;1.38;0.82;;;;;;;;;;4996128;28;20041;-80
2022/07/02 13:36:24;;;;;;;1.20;0.90;;;;;;;;;;4994877;28;20030;-80
2022/07/02 13:38:49;;;;;;;2.47;0.80;;;;;;;;;;4981106;28;20112;-79
2022/07/02 13:41:15;;;;;;;2.08;0.80;;;;;;;;;;5001340;28;20030;-80
2022/07/02 13:43:40;;;;;;;2.67;0.70;;;;;;;;;;5004294;28;20041;-81
2022/07/02 13:46:06;;;;;;;1.00;0.60;;;;;;;;;;5003445;28;20031;-80
2022/07/02 13:48:31;;;;;;;0.90;0.75;;;;;;;;;;4985243;28;20041;-80
2022/07/02 13:50:57;;;;;;;1.67;0.70;;;;;;;;;;5001062;28;20080;-80
2022/07/02 13:53:22;;;;;;;1.05;0.70;;;;;;;;;;4964968;28;20048;-79
2022/07/02 13:55:48;;;;;;;1.13;0.98;;;;;;;;;;5000527;28;20030;-81
2022/07/02 13:58:13;;;;;;;1.20;0.80;;;;;;;;;;5002004;28;20038;-79
2022/07/02 14:00:39;;;;;;;1.38;0.93;;;;;;;;;;4998402;28;20496;-80
2022/07/02 14:03:08;;;;;;;1.02;0.77;;;;;;;;;;4996261;28;20030;-80
2022/07/02 14:05:33;;;;;;;2.92;0.80;;;;;;;;;;4963964;28;20034;-80
2022/07/02 14:07:59;;;;;;;1.02;0.85;;;;;;;;;;4982195;28;20033;-80
2022/07/02 14:10:24;;;;;;;1.10;0.70;;;;;;;;;;4996396;28;20026;-80
2022/07/02 14:12:50;;;;;;;2.20;0.90;;;;;;;;;;4996814;28;20038;-80
2022/07/02 14:15:16;;;;;;;1.88;0.63;;;;;;;;;;4996017;28;20035;-80
2022/07/02 14:17:41;;;;;;;3.35;0.93;;;;;;;;;;4994315;28;20065;-80
2022/07/02 14:20:08;;;;;;;0.70;0.60;;;;;;;;;;4996964;28;20031;-80
2022/07/02 14:22:33;;;;;;;0.90;0.70;;;;;;;;;;4992698;28;20053;-80
2022/07/02 14:25:00;;;;;;;1.17;0.80;;;;;;;;;;4992579;28;20117;-80
2022/07/02 14:27:25;;;;;;;0.57;0.57;;;;;;;;;;4992226;28;20038;-79
2022/07/02 14:29:51;;;;;;;1.48;0.80;;;;;;;;;;4992447;28;20034;-80
2022/07/02 14:32:16;;;;;;;0.93;0.70;;;;;;;;;;4993285;28;20370;-80
2022/07/02 14:34:42;;;;;;;1.20;0.70;;;;;;;;;;4992350;28;20316;-80
2022/07/02 14:37:07;;;;;;;1.92;0.80;;;;;;;;;;4992093;28;20134;-80
2022/07/02 14:39:33;;;;;;;3.42;0.77;;;;;;;;;;4994083;28;20034;-80
2022/07/02 14:41:59;;;;;;;1.35;0.80;;;;;;;;;;4996993;28;20050;-80
2022/07/02 14:44:25;;;;;;;1.65;0.88;;;;;;;;;;4998895;28;20041;-80
2022/07/02 14:46:50;;;;;;;0.73;0.65;;;;;;;;;;4981237;28;20505;-79
2022/07/02 14:49:15;;;;;;;0.57;0.55;;;;;;;;;;4999276;28;20037;-80
2022/07/02 14:51:42;;;;;;;1.15;0.95;;;;;;;;;;5000169;28;20041;-80